createdAt,value
2018-06-03T00:00:27.908Z,42.17
2018-06-03T00:02:58.142Z,41.90
2018-06-03T00:05:28.551Z,44.27
2018-06-03T00:07:58.986Z,45.50
2018-06-03T00:10:29.407Z,45.77
2018-06-03T00:12:59.446Z,45.25
2018-06-03T00:15:29.991Z,41.15
2018-06-03T00:18:00.142Z,47.83
2018-06-03T00:22:40.757Z,46.55
2018-06-03T00:25:10.797Z,46.97
2018-06-03T00:27:40.610Z,48.02
2018-06-03T00:30:10.915Z,45.97
2018-06-03T00:32:40.834Z,47.33
2018-06-03T00:35:11.369Z,46.88
2018-06-03T00:37:41.519Z,45.93
2018-06-03T00:40:11.810Z,44.17
2018-06-03T00:42:42.265Z,46.65
2018-06-03T00:45:12.658Z,45.60
2018-06-03T00:47:42.954Z,47.43
2018-06-03T00:50:13.309Z,48.78
2018-06-03T00:52:43.616Z,46.58
2018-06-03T00:55:13.957Z,45.60
2018-06-03T00:57:44.285Z,46.07
2018-06-03T01:00:14.430Z,43.60
2018-06-03T01:02:44.732Z,44.20
2018-06-03T01:05:14.897Z,45.47
2018-06-03T01:07:45.586Z,44.08
2018-06-03T01:10:15.522Z,43.15
2018-06-03T01:12:45.821Z,43.90
2018-06-03T01:15:16.119Z,44.70
2018-06-03T01:17:46.470Z,43.35
2018-06-03T01:20:16.638Z,46.08
2018-06-03T01:22:47.123Z,43.35
2018-06-03T01:25:17.047Z,42.80
2018-06-03T01:27:47.595Z,45.07
2018-06-03T01:30:17.978Z,45.97
2018-06-03T01:32:48.278Z,45.70
2018-06-03T01:35:18.429Z,45.10
2018-06-03T01:37:48.877Z,44.58
2018-06-03T01:40:19.042Z,44.10
2018-06-03T01:42:49.319Z,44.55
2018-06-03T01:45:19.238Z,42.60
2018-06-03T01:47:49.554Z,42.20
2018-06-03T01:50:19.486Z,42.40
2018-06-03T01:52:49.812Z,42.30
2018-06-03T01:55:19.962Z,43.20
2018-06-03T01:57:50.271Z,43.43
2018-06-03T02:00:20.445Z,42.97
2018-06-03T02:02:50.819Z,44.77
2018-06-03T02:05:20.965Z,44.07
2018-06-03T02:07:51.959Z,45.43
2018-06-03T02:10:21.894Z,44.57
2018-06-03T02:12:52.195Z,44.87
2018-06-03T02:15:22.347Z,43.83
2018-06-03T02:17:55.917Z,43.07
2018-06-03T02:20:25.855Z,43.65
2018-06-03T02:22:56.159Z,42.83
2018-06-03T02:25:26.110Z,45.00
2018-06-03T02:27:56.403Z,43.57
2018-06-03T02:30:27.950Z,44.73
2018-06-03T02:32:58.290Z,44.75
2018-06-03T02:35:28.443Z,47.17
2018-06-03T02:37:58.734Z,45.97
2018-06-03T02:40:29.047Z,47.30
2018-06-03T02:42:58.990Z,45.00
2018-06-03T02:45:29.164Z,45.90
2018-06-03T02:47:59.344Z,44.13
2018-06-03T02:50:29.735Z,45.10
2018-06-03T02:52:59.901Z,46.80
2018-06-03T02:55:30.188Z,46.33
2018-06-03T02:58:00.520Z,46.07
2018-06-03T03:00:30.838Z,45.40
2018-06-03T03:03:01.013Z,45.37
2018-06-03T03:05:31.485Z,46.90
2018-06-03T03:08:01.633Z,47.73
2018-06-03T03:10:31.930Z,45.90
2018-06-03T03:13:01.868Z,44.40
2018-06-03T03:15:32.173Z,47.40
2018-06-03T03:18:02.102Z,47.93
2018-06-03T03:20:32.610Z,48.17
2018-06-03T03:23:02.581Z,46.27
2018-06-03T03:25:32.854Z,48.50
2018-06-03T03:28:02.783Z,47.20
2018-06-03T03:30:33.096Z,46.47
2018-06-03T03:33:03.078Z,45.90
2018-06-03T03:35:33.348Z,47.47
2018-06-03T03:38:03.502Z,53.60
2018-06-03T03:40:33.978Z,46.20
2018-06-03T03:43:04.306Z,46.33
2018-06-03T03:45:34.611Z,45.53
2018-06-03T03:48:04.990Z,49.90
2018-06-03T03:50:35.126Z,47.90
2018-06-03T03:53:05.407Z,46.30
2018-06-03T03:55:35.573Z,46.50
2018-06-03T03:58:06.075Z,46.60
2018-06-03T04:00:36.218Z,50.07
2018-06-03T04:03:06.498Z,48.33
2018-06-03T04:05:36.659Z,47.43
2018-06-03T04:08:07.356Z,47.95
2018-06-03T04:10:37.302Z,48.43
2018-06-03T04:13:07.639Z,46.70
2018-06-03T04:15:38.158Z,48.47
2018-06-03T04:18:08.452Z,48.50
2018-06-03T04:20:38.783Z,47.53
2018-06-03T04:23:09.111Z,50.10
2018-06-03T04:25:39.269Z,47.10
2018-06-03T04:28:09.551Z,51.13
2018-06-03T04:30:39.492Z,47.50
2018-06-03T04:33:09.788Z,46.07
2018-06-03T04:35:39.957Z,46.13
2018-06-03T04:38:10.235Z,45.33
2018-06-03T04:40:40.165Z,45.07
2018-06-03T04:43:17.303Z,43.90
2018-06-03T04:45:47.746Z,39.50
2018-06-03T04:48:18.087Z,39.63
2018-06-03T04:50:48.244Z,38.37
2018-06-03T04:53:18.534Z,38.10
2018-06-03T04:55:48.464Z,39.03
2018-06-03T04:58:18.770Z,38.23
2018-06-03T05:00:49.299Z,38.30
2018-06-03T05:03:19.463Z,35.87
2018-06-03T05:05:49.766Z,34.60
2018-06-03T05:08:19.894Z,37.60
2018-06-03T05:10:50.198Z,36.93
2018-06-03T05:13:20.118Z,36.67
2018-06-03T05:15:50.335Z,35.67
2018-06-03T05:18:20.736Z,36.20
2018-06-03T05:20:51.032Z,36.00
2018-06-03T05:23:21.187Z,37.20
2018-06-03T05:25:51.423Z,36.80
2018-06-03T05:28:21.580Z,35.90
2018-06-03T05:30:52.192Z,38.10
2018-06-03T05:33:22.235Z,34.50
2018-06-03T05:35:58.063Z,36.07
2018-06-03T05:38:28.238Z,35.40
2018-06-03T05:40:58.391Z,37.03
2018-06-03T05:43:28.549Z,37.07
2018-06-03T05:45:58.939Z,36.67
2018-06-03T05:48:29.446Z,35.43
2018-06-03T05:50:59.895Z,38.27
2018-06-03T05:53:30.603Z,38.53
2018-06-03T05:56:00.968Z,38.27
2018-06-03T05:58:31.307Z,35.07
2018-06-03T06:01:01.926Z,36.97
2018-06-03T06:03:31.947Z,34.27
2018-06-03T06:06:01.985Z,35.20
2018-06-03T06:08:32.562Z,35.23
2018-06-03T06:11:02.703Z,31.87
2018-06-03T06:13:32.882Z,30.60
2018-06-03T06:16:03.142Z,30.67
2018-06-03T06:18:33.417Z,30.60
2018-06-03T06:21:03.699Z,31.03
2018-06-03T06:23:34.023Z,32.17
2018-06-03T06:26:04.166Z,30.60
2018-06-03T06:28:34.471Z,30.47
2018-06-03T06:31:04.615Z,28.80
2018-06-03T06:33:35.113Z,28.80
2018-06-03T06:36:05.383Z,28.03
2018-06-03T06:38:35.773Z,29.20
2018-06-03T06:41:05.927Z,26.20
2018-06-03T08:05:49.022Z,22.40
2018-06-03T08:10:49.079Z,23.80
2018-06-03T08:13:19.349Z,22.97
2018-06-03T08:15:49.521Z,24.27
2018-06-03T08:18:19.799Z,22.30
2018-06-03T08:20:49.978Z,22.37
2018-06-03T08:23:20.365Z,22.90
2018-06-03T08:25:50.495Z,21.90
2018-06-03T08:28:20.896Z,24.17
2018-06-03T08:30:51.055Z,21.87
2018-06-03T08:33:21.342Z,21.83
2018-06-03T08:35:51.490Z,22.13
2018-06-03T08:38:21.799Z,21.03
2018-06-03T08:40:52.091Z,21.13
2018-06-03T08:43:22.654Z,22.07
2018-06-03T08:45:52.847Z,22.60
2018-06-03T08:48:23.259Z,21.23
2018-06-03T08:50:53.439Z,21.60
2018-06-03T08:53:23.833Z,19.15
2018-06-03T08:58:23.901Z,21.00
2018-06-03T11:43:06.623Z,16.30
2018-06-03T12:38:32.900Z,18.60
2018-06-03T16:57:41.615Z,13.77
2018-06-03T17:27:35.515Z,9.60
2018-06-03T17:32:35.302Z,12.03
2018-06-03T17:35:05.447Z,8.90
2018-06-03T17:37:35.704Z,9.05
2018-06-03T17:40:05.891Z,11.57
2018-06-03T17:42:36.146Z,8.80
2018-06-03T17:45:06.331Z,9.00
2018-06-03T17:47:36.606Z,10.53
2018-06-03T17:55:05.594Z,10.60
2018-06-03T17:57:35.875Z,8.63
2018-06-03T18:00:06.091Z,8.63
2018-06-03T18:02:36.323Z,8.53
2018-06-03T18:05:06.493Z,8.07
2018-06-03T18:07:36.800Z,8.40
2018-06-03T18:10:07.047Z,8.97
2018-06-03T18:12:37.331Z,9.50
2018-06-03T18:15:07.466Z,7.87
2018-06-03T18:17:37.715Z,8.20
2018-06-03T18:22:37.361Z,8.70
2018-06-03T18:35:05.470Z,6.93
2018-06-03T18:37:35.631Z,8.50
2018-06-03T18:40:05.928Z,7.50
2018-06-03T20:14:46.380Z,12.10
2018-06-03T20:39:41.557Z,8.20
2018-06-03T20:42:11.720Z,8.47
2018-06-03T20:44:42.045Z,10.50
2018-06-03T20:47:12.177Z,12.40
2018-06-03T20:49:42.451Z,8.77
2018-06-03T20:52:12.599Z,11.77
2018-06-03T20:54:42.877Z,9.60
2018-06-03T20:57:13.007Z,8.47
2018-06-03T20:59:43.278Z,9.70
2018-06-03T21:02:13.450Z,8.80
2018-06-03T21:04:43.658Z,10.20
2018-06-03T21:07:13.807Z,8.83
2018-06-03T21:09:44.238Z,9.95
2018-06-03T21:57:05.144Z,10.43
2018-06-03T21:59:35.295Z,10.90
2018-06-03T22:02:05.794Z,14.73
2018-06-03T22:04:35.946Z,14.78
2018-06-03T22:07:06.395Z,12.73
2018-06-03T22:12:06.132Z,13.75
2018-06-03T22:19:35.388Z,12.60
2018-06-03T22:27:04.447Z,13.45
2018-06-03T22:29:34.607Z,16.40
2018-06-03T22:32:04.911Z,19.35
2018-06-03T22:34:35.063Z,16.82
2018-06-03T22:37:05.326Z,21.68
2018-06-03T22:39:35.468Z,15.08
2018-06-03T22:42:05.721Z,18.20
2018-06-03T22:44:35.979Z,22.30
2018-06-03T22:47:06.126Z,17.75
2018-06-03T22:49:36.398Z,17.70
2018-06-03T22:52:06.600Z,18.17
2018-06-03T22:54:36.812Z,21.00
2018-06-03T22:57:45.349Z,19.25
2018-06-03T23:00:22.547Z,28.15
